Time;durP1;ratioP1;P1;durP2;ratioP2;P2;SDS_P1;SDS_P2;PMS_P1;PMS_P2;Temp;Humidity;BMP_temperature;BMP_pressure;BME280_temperature;BME280_humidity;BME280_pressure;Samples;Min_cycle;Max_cycle;Signal;HPM_P1;HPM_P2
2023/10/09 00:01:31;;;;;;;10.75;4.50;;;14.50;99.90;;;;;;5079967;28;20114;-68
2023/10/09 00:04:01;;;;;;;7.10;4.07;;;14.50;99.90;;;;;;5095145;28;20044;-67
2023/10/09 00:06:38;;;;;;;9.55;4.45;;;14.50;99.90;;;;;;5079315;28;20043;-68
2023/10/09 00:11:57;;;;;;;10.48;4.35;;;14.50;99.90;;;;;;5113509;28;20130;-67
2023/10/09 00:14:38;;;;;;;11.98;5.00;;;14.50;99.90;;;;;;5095415;28;20039;-67
2023/10/09 00:19:37;;;;;;;11.10;4.65;;;14.50;99.90;;;;;;5113590;28;20047;-67
2023/10/09 00:22:23;;;;;;;11.23;4.78;;;14.50;99.90;;;;;;5094883;28;20223;-72
2023/10/09 00:24:51;;;;;;;8.65;4.32;;;14.50;99.90;;;;;;5112932;28;20143;-67
2023/10/09 00:27:21;;;;;;;11.63;4.72;;;14.50;99.90;;;;;;5111893;28;20565;-67
2023/10/09 00:29:48;;;;;;;12.00;4.82;;;14.50;99.90;;;;;;5112935;28;20409;-67
2023/10/09 00:34:43;;;;;;;10.48;5.45;;;14.50;99.90;;;;;;5095528;28;20055;-74
2023/10/09 00:40:20;;;;;;;13.27;5.57;;;14.50;99.90;;;;;;5090513;28;20185;-66
2023/10/09 00:42:47;;;;;;;15.32;5.55;;;14.50;99.90;;;;;;5096607;28;20130;-74
2023/10/09 00:45:24;;;;;;;9.52;5.35;;;14.50;99.90;;;;;;5095403;28;20051;-67
2023/10/09 00:47:51;;;;;;;12.80;5.80;;;14.50;99.90;;;;;;5112879;28;20396;-66
2023/10/09 00:52:50;;;;;;;17.25;6.78;;;14.50;99.90;;;;;;5112958;28;20048;-67
2023/10/09 00:55:27;;;;;;;13.52;6.90;;;14.50;99.90;;;;;;5094988;28;20134;-66
2023/10/09 00:57:59;;;;;;;14.98;6.00;;;14.50;99.90;;;;;;5112678;28;20052;-67
2023/10/09 01:03:19;;;;;;;12.13;6.68;;;14.50;99.90;;;;;;5112767;28;20047;-66
2023/10/09 01:05:57;;;;;;;15.30;7.07;;;14.50;99.90;;;;;;5095003;28;20062;-66
2023/10/09 01:08:32;;;;;;;14.88;7.18;;;14.50;99.90;;;;;;5112461;28;20625;-67
2023/10/09 01:11:14;;;;;;;14.07;6.72;;;14.50;99.90;;;;;;5112090;28;20489;-67
2023/10/09 01:14:26;;;;;;;16.55;7.30;;;14.50;99.90;;;;;;5094972;28;20056;-67
2023/10/09 01:16:31;;;;;;;16.02;7.03;;;14.50;99.90;;;;;;5104900;28;20058;-68
2023/10/09 01:18:57;;;;;;;12.85;6.57;;;14.50;99.90;;;;;;5094310;28;20189;-66
2023/10/09 01:21:31;;;;;;;15.15;7.35;;;14.50;99.90;;;;;;5077778;28;20108;-66
2023/10/09 01:24:03;;;;;;;16.30;8.00;;;14.50;99.90;;;;;;5112143;28;20043;-66
2023/10/09 01:26:39;;;;;;;19.95;8.35;;;14.50;99.90;;;;;;5077867;28;20054;-67
2023/10/09 01:29:21;;;;;;;23.52;8.45;;;14.50;99.90;;;;;;5112238;28;20097;-67
2023/10/09 01:31:55;;;;;;;21.85;8.88;;;14.50;99.90;;;;;;5094411;28;20044;-67
2023/10/09 01:34:38;;;;;;;15.60;8.75;;;14.50;99.90;;;;;;5112598;28;20408;-66
2023/10/09 01:37:11;;;;;;;17.02;8.30;;;14.50;99.90;;;;;;5078923;28;20047;-65
2023/10/09 01:39:41;;;;;;;16.73;9.50;;;14.50;99.90;;;;;;5115527;28;20047;-70
2023/10/09 01:42:09;;;;;;;21.52;10.00;;;14.50;99.90;;;;;;5097926;28;20505;-67
2023/10/09 01:44:35;;;;;;;19.10;10.80;;;14.50;99.90;;;;;;5098181;28;20050;-67
2023/10/09 01:47:07;;;;;;;20.15;10.20;;;14.50;99.90;;;;;;5080890;28;20047;-68
2023/10/09 01:49:43;;;;;;;22.08;11.05;;;14.50;99.90;;;;;;5098639;28;20104;-68
2023/10/09 01:52:15;;;;;;;22.30;10.38;;;14.50;99.90;;;;;;5097993;28;20043;-67
2023/10/09 01:54:47;;;;;;;21.90;11.57;;;14.50;99.90;;;;;;5116408;28;20507;-67
2023/10/09 01:57:13;;;;;;;24.13;11.50;;;14.50;99.90;;;;;;5097565;28;20048;-67
2023/10/09 01:59:43;;;;;;;24.52;12.07;;;14.40;99.90;;;;;;5116285;28;20039;-67
2023/10/09 02:07:44;;;;;;;25.55;12.70;;;14.40;99.90;;;;;;5116074;28;20438;-68
2023/10/09 02:12:59;;;;;;;30.05;13.55;;;14.50;99.90;;;;;;5116118;28;20113;-67
2023/10/09 02:21:12;;;;;;;26.85;13.32;;;14.40;99.90;;;;;;5115996;28;20047;-72
2023/10/09 02:26:19;;;;;;;22.20;13.57;;;14.40;99.90;;;;;;5115478;28;20382;-67
2023/10/09 02:28:58;;;;;;;26.48;13.50;;;14.40;99.90;;;;;;5115758;28;20048;-66
2023/10/09 02:31:26;;;;;;;28.42;14.15;;;14.40;99.90;;;;;;5115277;28;20051;-67
2023/10/09 02:33:55;;;;;;;27.27;15.52;;;14.40;99.90;;;;;;5115149;28;20161;-66
2023/10/09 02:36:24;;;;;;;33.22;14.98;;;14.40;99.90;;;;;;5097139;28;20122;-67
2023/10/09 02:38:53;;;;;;;30.58;15.80;;;14.40;99.90;;;;;;5097556;28;20371;-67
2023/10/09 02:41:23;;;;;;;30.08;15.40;;;14.40;99.90;;;;;;5097197;28;20055;-67
2023/10/09 02:43:50;;;;;;;30.25;15.77;;;14.40;99.90;;;;;;5097158;28;20044;-67
2023/10/09 02:46:21;;;;;;;33.55;16.33;;;14.40;99.90;;;;;;5115091;28;20123;-67
2023/10/09 02:48:53;;;;;;;28.08;14.90;;;14.40;99.90;;;;;;5115070;28;20101;-67
2023/10/09 02:53:54;;;;;;;27.40;14.13;;;14.40;99.90;;;;;;5115319;28;20052;-67
2023/10/09 02:59:07;;;;;;;29.63;15.75;;;14.40;99.90;;;;;;5115129;28;20378;-76
2023/10/09 03:01:38;;;;;;;30.15;16.35;;;14.30;99.90;;;;;;5096970;28;20040;-67
2023/10/09 03:04:05;;;;;;;29.40;17.10;;;14.40;99.90;;;;;;5079921;28;20043;-73
2023/10/09 03:06:34;;;;;;;35.10;17.55;;;14.30;99.90;;;;;;5114595;28;20055;-67
2023/10/09 03:09:16;;;;;;;33.55;18.08;;;14.40;99.90;;;;;;5114782;28;20047;-67
2023/10/09 03:11:44;;;;;;;35.95;18.65;;;14.40;99.90;;;;;;5096914;28;20059;-67
2023/10/09 03:14:10;;;;;;;34.60;19.38;;;14.40;99.90;;;;;;5114558;28;20090;-67
2023/10/09 03:16:36;;;;;;;36.22;18.95;;;14.40;99.90;;;;;;5096662;28;20075;-67
2023/10/09 03:19:03;;;;;;;37.20;18.95;;;14.40;99.90;;;;;;5096689;28;20464;-67
2023/10/09 03:21:28;;;;;;;38.90;19.23;;;14.40;99.90;;;;;;5114279;28;20079;-67
2023/10/09 03:23:56;;;;;;;37.78;19.75;;;14.40;99.90;;;;;;5096209;28;20086;-68
2023/10/09 03:26:25;;;;;;;40.00;20.83;;;14.40;99.90;;;;;;5096357;28;20117;-71
2023/10/09 03:28:54;;;;;;;35.70;20.35;;;14.40;99.90;;;;;;5096556;28;20059;-67
2023/10/09 03:31:21;;;;;;;35.42;20.67;;;14.40;99.90;;;;;;5113984;28;20053;-71
2023/10/09 03:33:47;;;;;;;37.75;20.83;;;14.50;99.90;;;;;;5079227;28;20048;-67
2023/10/09 03:36:13;;;;;;;34.95;19.45;;;14.50;99.90;;;;;;5113598;28;20043;-66
2023/10/09 03:38:39;;;;;;;39.53;19.80;;;14.50;99.90;;;;;;5114176;28;20083;-66
2023/10/09 03:41:06;;;;;;;30.67;19.25;;;14.50;99.90;;;;;;5114017;28;20392;-68
2023/10/09 03:43:39;;;;;;;38.38;20.85;;;14.50;99.90;;;;;;5114008;28;20135;-68
2023/10/09 03:46:21;;;;;;;35.53;20.67;;;14.60;99.90;;;;;;5114139;28;20119;-67
2023/10/09 03:48:56;;;;;;;37.92;21.45;;;14.60;99.90;;;;;;5114207;28;20047;-67
2023/10/09 03:51:22;;;;;;;40.17;23.00;;;14.60;99.90;;;;;;5113843;28;20082;-66
2023/10/09 03:53:49;;;;;;;33.97;21.63;;;14.70;99.90;;;;;;5114083;28;20429;-66
2023/10/09 03:56:16;;;;;;;37.47;22.40;;;14.70;99.90;;;;;;5113691;28;20055;-69
2023/10/09 03:58:47;;;;;;;36.95;21.15;;;14.70;99.90;;;;;;5095448;28;20473;-67
2023/10/09 04:04:10;;;;;;;37.95;21.63;;;14.90;99.90;;;;;;5091385;28;20131;-67
2023/10/09 04:06:37;;;;;;;40.40;20.85;;;14.90;99.90;;;;;;5095343;28;20115;-66
2023/10/09 04:10:02;;;;;;;43.53;22.45;;;14.90;99.90;;;;;;5095724;28;20450;-66
2023/10/09 04:14:35;;;;;;;38.72;20.42;;;15.10;99.90;;;;;;5113744;28;20055;-69
2023/10/09 04:17:06;;;;;;;39.42;20.83;;;15.10;99.90;;;;;;5096012;28;20516;-69
2023/10/09 04:19:48;;;;;;;36.00;20.10;;;15.20;99.90;;;;;;5095301;28;20039;-69
2023/10/09 04:22:26;;;;;;;33.70;18.80;;;15.20;99.90;;;;;;5113704;28;20055;-67
2023/10/09 04:24:52;;;;;;;39.60;20.02;;;15.20;99.90;;;;;;5113035;28;20472;-68
2023/10/09 04:27:26;;;;;;;34.28;19.85;;;15.20;99.90;;;;;;5078176;28;20051;-75
2023/10/09 04:29:54;;;;;;;35.05;19.30;;;15.30;99.90;;;;;;5113713;28;20109;-68
2023/10/09 04:32:24;;;;;;;32.75;18.00;;;15.30;99.90;;;;;;5112902;28;20055;-75
2023/10/09 04:35:39;;;;;;;32.05;18.67;;;15.30;99.90;;;;;;5096077;28;20071;-67
2023/10/09 04:37:37;;;;;;;37.10;17.25;;;15.40;99.90;;;;;;5097795;28;20067;-67
2023/10/09 04:40:12;;;;;;;35.72;18.38;;;15.40;99.90;;;;;;5095146;28;20040;-67
2023/10/09 04:42:38;;;;;;;33.25;18.42;;;15.40;99.90;;;;;;5112240;28;20054;-67
2023/10/09 04:47:37;;;;;;;31.05;17.83;;;15.40;99.90;;;;;;5112630;28;20130;-69
2023/10/09 04:57:45;;;;;;;30.52;18.08;;;15.40;99.90;;;;;;5112482;28;20139;-68
2023/10/09 05:02:58;;;;;;;35.40;17.15;;;15.50;99.90;;;;;;5112991;28;20453;-68
2023/10/09 05:05:58;;;;;;;32.72;17.13;;;15.50;99.90;;;;;;5112664;28;20119;-76
2023/10/09 05:16:26;;;;;;;32.00;15.73;;;15.50;99.90;;;;;;5112616;28;20112;-68
2023/10/09 05:18:57;;;;;;;31.90;15.88;;;15.50;99.90;;;;;;5112649;28;20059;-68
2023/10/09 05:29:19;;;;;;;26.20;14.38;;;15.50;99.90;;;;;;5112465;28;20393;-67
2023/10/09 05:37:32;;;;;;;23.08;12.30;;;15.60;99.90;;;;;;5112528;28;20051;-67
2023/10/09 05:42:42;;;;;;;27.95;13.45;;;15.60;99.90;;;;;;5112246;28;20063;-68
2023/10/09 05:48:11;;;;;;;28.45;13.10;;;15.60;99.90;;;;;;5112198;28;20055;-68
2023/10/09 06:07:14;;;;;;;28.58;11.40;;;15.60;99.90;;;;;;5112065;28;20509;-70
2023/10/09 06:10:10;;;;;;;24.63;11.00;;;15.60;99.90;;;;;;5112055;28;20055;-68
2023/10/09 06:15:30;;;;;;;25.75;11.02;;;15.60;99.90;;;;;;5112678;28;20055;-69
2023/10/09 06:18:10;;;;;;;20.33;9.93;;;15.60;99.90;;;;;;5112224;28;20106;-69
2023/10/09 06:21:07;;;;;;;24.40;9.93;;;15.60;99.90;;;;;;5111847;28;20051;-69
2023/10/09 06:26:24;;;;;;;27.02;10.30;;;15.70;99.90;;;;;;5114750;28;20051;-68
2023/10/09 06:29:13;;;;;;;26.67;9.93;;;15.70;99.90;;;;;;5116329;28;20097;-68
2023/10/09 06:34:32;;;;;;;;;;;15.70;99.90;;;;;;5115773;28;20055;-72
2023/10/09 06:37:03;;;;;;;22.05;9.82;;;15.70;99.90;;;;;;5097036;28;20528;-67
2023/10/09 06:47:41;;;;;;;20.90;9.43;;;15.80;99.90;;;;;;5097052;28;20060;-74
2023/10/09 06:53:18;;;;;;;21.77;8.90;;;15.70;99.90;;;;;;5096975;28;20100;-68
2023/10/09 06:56:01;;;;;;;27.45;9.57;;;15.80;99.90;;;;;;5096441;28;20604;-70
2023/10/09 06:58:27;;;;;;;26.30;9.55;;;15.80;99.90;;;;;;5115225;28;20136;-70
2023/10/09 07:03:52;;;;;;;19.95;9.50;;;15.80;99.90;;;;;;5096764;28;20446;-68
2023/10/09 07:06:24;;;;;;;25.20;10.13;;;15.80;99.90;;;;;;5096960;28;20048;-69
2023/10/09 07:14:32;;;;;;;19.83;9.30;;;15.80;99.90;;;;;;5096365;28;20097;-69
2023/10/09 07:16:58;;;;;;;26.50;9.18;;;15.80;99.90;;;;;;5096140;28;20219;-71
2023/10/09 07:22:04;;;;;;;22.95;9.30;;;15.80;99.90;;;;;;5096474;28;20130;-69
2023/10/09 07:24:57;;;;;;;23.48;9.15;;;15.80;99.90;;;;;;5079435;28;20393;-69
2023/10/09 07:27:43;;;;;;;20.92;9.20;;;15.90;99.90;;;;;;5095787;28;20044;-71
2023/10/09 07:30:35;;;;;;;20.60;8.63;;;15.80;99.90;;;;;;5096055;28;20058;-69
2023/10/09 07:32:56;;;;;;;22.58;8.70;;;15.80;99.90;;;;;;5082012;28;20048;-71
2023/10/09 07:38:09;;;;;;;20.27;9.27;;;15.90;99.90;;;;;;5081533;28;20035;-71
2023/10/09 07:40:54;;;;;;;18.27;8.85;;;15.90;99.90;;;;;;5114254;28;20063;-71
2023/10/09 07:43:26;;;;;;;20.55;8.07;;;15.90;99.90;;;;;;5081582;28;20058;-71
2023/10/09 07:48:25;;;;;;;25.75;8.98;;;15.90;99.90;;;;;;5096161;28;20051;-70
2023/10/09 07:50:57;;;;;;;22.15;9.18;;;15.90;99.90;;;;;;5095768;28;20047;-71
2023/10/09 07:53:28;;;;;;;20.02;8.40;;;15.90;99.90;;;;;;5079077;28;20051;-71
2023/10/09 07:55:58;;;;;;;17.83;9.07;;;15.90;99.90;;;;;;5095710;28;20040;-66
2023/10/09 07:58:25;;;;;;;20.75;9.10;;;15.90;99.90;;;;;;5079379;28;20051;-68
2023/10/09 08:03:23;;;;;;;18.20;8.43;;;16.00;99.90;;;;;;5095529;28;20134;-68
2023/10/09 08:05:52;;;;;;;17.58;8.27;;;16.00;99.90;;;;;;5095593;28;20055;-72
2023/10/09 08:08:39;;;;;;;21.27;8.68;;;16.00;99.90;;;;;;5095843;28;20043;-67
2023/10/09 08:13:57;;;;;;;19.67;8.45;;;16.00;99.90;;;;;;5095324;28;20051;-71
2023/10/09 08:16:36;;;;;;;23.27;8.23;;;16.00;99.90;;;;;;5095553;28;20434;-64
2023/10/09 08:19:32;;;;;;;21.15;8.85;;;16.00;99.90;;;;;;5078080;28;20066;-66
2023/10/09 08:24:40;;;;;;;23.15;7.93;;;16.00;99.90;;;;;;5113572;28;20142;-66
2023/10/09 08:30:28;;;;;;;19.55;8.02;;;16.00;99.90;;;;;;5095028;28;20047;-71
2023/10/09 08:32:42;;;;;;;20.23;8.60;;;16.00;99.90;;;;;;5080941;28;20473;-67
2023/10/09 08:35:29;;;;;;;23.67;8.30;;;16.00;99.90;;;;;;5112747;28;20040;-65
2023/10/09 08:38:08;;;;;;;22.70;8.70;;;16.00;99.90;;;;;;5094622;28;20048;-71
2023/10/09 08:40:39;;;;;;;21.67;8.73;;;16.10;99.90;;;;;;5095380;28;20054;-66
2023/10/09 08:43:14;;;;;;;23.77;8.77;;;16.10;99.90;;;;;;5074093;28;20497;-67
2023/10/09 08:45:44;;;;;;;22.95;8.43;;;16.10;99.90;;;;;;5091871;28;20374;-67
2023/10/09 08:48:18;;;;;;;24.30;8.20;;;16.10;99.90;;;;;;5090695;28;20051;-67
2023/10/09 08:50:54;;;;;;;24.17;8.70;;;16.10;99.90;;;;;;5091289;28;20504;-68
2023/10/09 08:53:20;;;;;;;21.90;9.35;;;16.10;99.90;;;;;;5091397;28;20052;-66
2023/10/09 08:55:47;;;;;;;22.10;8.25;;;16.20;99.90;;;;;;5091619;28;20091;-67
2023/10/09 08:58:24;;;;;;;22.60;8.73;;;16.20;99.90;;;;;;5091643;28;20067;-67
2023/10/09 09:00:51;;;;;;;21.85;8.50;;;16.20;99.90;;;;;;5074555;28;20047;-68
2023/10/09 09:03:19;;;;;;;18.92;8.43;;;16.30;99.90;;;;;;5091317;28;20512;-69
2023/10/09 09:05:57;;;;;;;20.35;8.18;;;16.30;99.90;;;;;;5092894;28;20097;-71
2023/10/09 09:08:25;;;;;;;19.05;8.05;;;16.30;99.90;;;;;;5092212;28;20126;-67
2023/10/09 09:11:22;;;;;;;20.35;8.45;;;16.40;99.90;;;;;;5091109;28;20067;-67
2023/10/09 09:14:07;;;;;;;23.77;7.78;;;16.40;99.90;;;;;;5092594;28;20123;-65
2023/10/09 09:16:36;;;;;;;18.08;7.13;;;16.50;99.90;;;;;;5092594;28;20052;-67
2023/10/09 09:21:42;;;;;;;15.43;7.05;;;16.50;99.90;;;;;;5091893;28;20408;-71
2023/10/09 09:26:45;;;;;;;14.00;7.23;;;16.60;99.90;;;;;;5091087;28;20055;-68
2023/10/09 09:29:18;;;;;;;15.07;6.90;;;16.60;99.90;;;;;;5074489;28;20051;-69
2023/10/09 09:32:06;;;;;;;17.27;7.13;;;16.60;99.90;;;;;;5090757;28;20077;-68
2023/10/09 09:34:48;;;;;;;19.58;7.10;;;16.60;99.90;;;;;;5091019;28;20496;-71
2023/10/09 09:37:20;;;;;;;17.23;7.20;;;16.60;99.90;;;;;;5091810;28;20123;-78
2023/10/09 09:39:50;;;;;;;17.38;7.20;;;16.60;99.90;;;;;;5074472;28;20051;-73
2023/10/09 09:42:25;;;;;;;16.80;7.43;;;16.60;99.90;;;;;;5100538;28;20055;-69
2023/10/09 09:44:55;;;;;;;18.77;7.55;;;16.70;99.90;;;;;;5094276;28;20454;-68
2023/10/09 09:47:27;;;;;;;16.60;7.18;;;16.70;99.90;;;;;;5060623;28;20051;-70
2023/10/09 09:49:59;;;;;;;20.65;7.55;;;16.70;99.90;;;;;;5062267;28;20370;-68
2023/10/09 09:52:37;;;;;;;22.80;7.95;;;16.70;99.90;;;;;;5077670;28;20058;-68
2023/10/09 09:55:05;;;;;;;16.17;7.43;;;16.70;99.90;;;;;;5112592;28;20044;-68
2023/10/09 09:57:39;;;;;;;21.15;6.72;;;16.80;99.90;;;;;;5112339;28;20130;-68
2023/10/09 10:00:17;;;;;;;17.38;7.32;;;16.70;99.90;;;;;;5080382;28;20051;-68
2023/10/09 10:02:46;;;;;;;15.55;6.53;;;16.70;99.90;;;;;;5081435;28;20146;-69
2023/10/09 10:05:15;;;;;;;16.67;6.68;;;16.70;99.90;;;;;;5080502;28;20035;-68
2023/10/09 10:07:43;;;;;;;17.08;6.28;;;16.80;99.90;;;;;;5115791;28;20051;-67
2023/10/09 10:10:34;;;;;;;15.00;5.68;;;16.70;99.90;;;;;;5097868;28;20389;-73
2023/10/09 10:13:01;;;;;;;19.23;6.50;;;16.70;99.90;;;;;;5097883;28;20043;-65
2023/10/09 10:16:10;;;;;;;18.58;5.63;;;16.70;99.90;;;;;;5097594;28;20047;-67
2023/10/09 10:21:48;;;;;;;14.65;5.82;;;16.70;99.90;;;;;;5097954;28;20492;-71
2023/10/09 10:24:30;;;;;;;13.98;5.47;;;16.70;99.90;;;;;;5065412;28;20040;-70
2023/10/09 10:27:17;;;;;;;17.60;5.97;;;16.70;99.90;;;;;;5115630;28;20135;-70
2023/10/09 10:29:50;;;;;;;15.13;5.60;;;16.70;99.90;;;;;;5097870;28;20056;-70
2023/10/09 10:32:20;;;;;;;14.07;5.43;;;16.70;99.90;;;;;;5097585;28;20041;-71
2023/10/09 10:34:55;;;;;;;16.85;6.70;;;16.80;99.90;;;;;;5115676;28;20044;-70
2023/10/09 10:37:50;;;;;;;14.77;5.65;;;16.80;99.90;;;;;;5097617;28;20493;-70
2023/10/09 10:43:47;;;;;;;17.58;5.78;;;16.80;99.90;;;;;;5097307;28;20477;-70
2023/10/09 10:46:15;;;;;;;17.35;5.75;;;16.80;99.90;;;;;;5097583;28;20100;-71
2023/10/09 10:48:46;;;;;;;15.70;5.97;;;16.80;99.90;;;;;;5080640;28;20128;-73
2023/10/09 10:51:14;;;;;;;14.98;5.63;;;16.80;99.90;;;;;;5118787;28;20188;-70
2023/10/09 10:53:52;;;;;;;13.35;5.85;;;16.80;99.90;;;;;;5098826;28;20078;-71
2023/10/09 10:56:18;;;;;;;16.15;6.18;;;16.80;99.90;;;;;;5098779;28;20051;-72
2023/10/09 11:01:57;;;;;;;25.83;6.75;;;16.80;99.90;;;;;;5096890;28;20104;-69
2023/10/09 11:07:09;;;;;;;16.02;5.20;;;16.80;99.90;;;;;;5081531;28;20582;-71
2023/10/09 11:10:10;;;;;;;18.90;6.22;;;16.70;99.90;;;;;;5114782;28;20051;-68
2023/10/09 11:12:42;;;;;;;17.30;5.75;;;16.70;99.90;;;;;;5095233;28;20047;-68
2023/10/09 11:15:18;;;;;;;20.92;5.65;;;16.70;99.90;;;;;;5096566;28;20090;-68
2023/10/09 11:17:45;;;;;;;15.55;5.40;;;16.70;99.90;;;;;;5096451;28;20049;-68
2023/10/09 11:20:32;;;;;;;18.85;5.38;;;16.60;99.90;;;;;;5114536;28;20485;-69
2023/10/09 11:25:38;;;;;;;21.35;5.93;;;16.70;99.90;;;;;;5081197;28;20054;-69
2023/10/09 11:28:43;;;;;;;20.63;6.07;;;16.70;99.90;;;;;;5096554;28;20405;-69
2023/10/09 11:31:15;;;;;;;18.45;5.82;;;16.70;99.90;;;;;;5096676;28;20062;-70
2023/10/09 11:33:52;;;;;;;17.90;5.25;;;16.80;99.90;;;;;;5096278;28;20059;-71
2023/10/09 11:36:32;;;;;;;14.75;5.05;;;16.80;99.90;;;;;;5114539;28;20039;-70
2023/10/09 11:39:31;;;;;;;17.02;4.35;;;16.90;99.90;;;;;;5081327;28;20039;-69
2023/10/09 11:42:09;;;;;;;14.73;4.85;;;17.00;99.90;;;;;;5096006;28;20062;-69
2023/10/09 11:44:40;;;;;;;12.73;4.15;;;17.00;99.90;;;;;;5095732;28;20080;-70
2023/10/09 11:55:00;;;;;;;11.20;4.10;;;17.10;99.90;;;;;;5113244;28;20054;-70
2023/10/09 11:57:33;;;;;;;15.65;5.05;;;17.10;99.90;;;;;;5113608;28;20047;-77
2023/10/09 12:00:00;;;;;;;11.90;4.72;;;17.20;99.90;;;;;;5079542;28;20047;-70
2023/10/09 12:02:26;;;;;;;12.15;4.30;;;17.20;99.90;;;;;;5095847;28;20083;-77
2023/10/09 12:04:55;;;;;;;13.68;4.50;;;17.10;99.90;;;;;;5095890;28;20108;-70
2023/10/09 12:07:22;;;;;;;12.48;4.25;;;17.00;99.90;;;;;;5046913;28;20039;-70
2023/10/09 12:09:56;;;;;;;12.30;3.78;;;17.00;99.90;;;;;;5095682;28;20184;-71
2023/10/09 12:12:26;;;;;;;14.73;4.22;;;17.00;99.90;;;;;;5063354;28;20138;-71
2023/10/09 12:14:53;;;;;;;15.93;4.78;;;16.90;99.90;;;;;;5078789;28;20044;-70
2023/10/09 12:17:18;;;;;;;14.90;4.07;;;16.90;99.90;;;;;;5078902;28;20043;-70
2023/10/09 12:19:44;;;;;;;14.02;4.10;;;16.90;99.90;;;;;;5113414;28;20059;-71
2023/10/09 12:22:10;;;;;;;16.33;4.07;;;16.90;99.90;;;;;;5113663;28;20044;-72
2023/10/09 12:24:43;;;;;;;10.65;3.40;;;16.90;99.90;;;;;;5112640;28;20485;-70
2023/10/09 12:27:12;;;;;;;15.43;4.28;;;16.90;99.90;;;;;;5095824;28;20435;-70
2023/10/09 12:29:44;;;;;;;10.68;4.05;;;16.90;99.90;;;;;;5094890;28;20069;-70
2023/10/09 12:32:11;;;;;;;11.40;4.28;;;16.90;99.90;;;;;;5095725;28;20492;-69
2023/10/09 12:34:38;;;;;;;16.50;4.57;;;17.00;99.90;;;;;;5095083;28;20036;-70
2023/10/09 12:37:04;;;;;;;12.07;4.28;;;17.00;99.90;;;;;;5095678;28;20048;-70
2023/10/09 12:39:40;;;;;;;13.30;4.93;;;17.00;99.90;;;;;;5095262;28;20134;-77
2023/10/09 12:42:06;;;;;;;13.27;3.83;;;17.00;99.90;;;;;;5094933;28;20063;-71
2023/10/09 12:44:39;;;;;;;11.43;4.28;;;17.10;99.90;;;;;;5094599;28;20048;-77
2023/10/09 12:47:06;;;;;;;13.48;4.07;;;17.20;99.90;;;;;;5095446;28;20051;-71
2023/10/09 12:49:31;;;;;;;14.48;4.72;;;17.10;99.90;;;;;;5095070;28;20597;-75
2023/10/09 12:51:58;;;;;;;11.90;4.05;;;17.20;99.90;;;;;;5095285;28;20134;-70
2023/10/09 12:54:27;;;;;;;11.65;3.58;;;17.20;99.90;;;;;;5078416;28;20063;-70
2023/10/09 12:56:54;;;;;;;17.15;4.75;;;17.20;99.90;;;;;;5094934;28;20104;-71
2023/10/09 12:59:20;;;;;;;10.65;3.60;;;17.30;99.90;;;;;;5095327;28;20090;-71
2023/10/09 13:01:51;;;;;;;9.60;3.50;;;17.30;99.90;;;;;;5094706;28;20050;-70
2023/10/09 13:04:18;;;;;;;11.13;3.95;;;17.30;99.90;;;;;;5062374;28;20040;-71
2023/10/09 13:06:45;;;;;;;9.43;3.85;;;17.30;99.90;;;;;;5112796;28;20048;-71
2023/10/09 13:09:24;;;;;;;12.02;4.05;;;17.30;99.90;;;;;;5115226;28;20047;-70
2023/10/09 13:11:50;;;;;;;13.63;4.03;;;17.30;99.90;;;;;;5081950;28;20457;-70
2023/10/09 13:14:16;;;;;;;8.45;3.80;;;17.20;99.90;;;;;;5098079;28;20048;-71
2023/10/09 13:16:47;;;;;;;8.07;3.90;;;17.30;99.90;;;;;;5078643;28;20144;-73
2023/10/09 13:19:12;;;;;;;8.73;3.83;;;17.30;99.90;;;;;;5113502;28;20048;-71
2023/10/09 13:21:42;;;;;;;12.13;3.88;;;17.30;99.90;;;;;;5094517;28;20047;-71
2023/10/09 13:24:15;;;;;;;11.32;4.07;;;17.20;99.90;;;;;;5061693;28;20044;-71
2023/10/09 13:26:46;;;;;;;17.53;4.57;;;17.20;99.90;;;;;;5077706;28;20492;-70
2023/10/09 13:29:13;;;;;;;12.25;4.30;;;17.20;99.90;;;;;;5095066;28;20382;-70
2023/10/09 13:31:46;;;;;;;15.00;3.80;;;17.10;99.90;;;;;;5060839;28;20056;-77
2023/10/09 13:34:14;;;;;;;11.90;3.95;;;17.10;99.90;;;;;;5095622;28;20511;-71
2023/10/09 13:36:49;;;;;;;12.48;3.92;;;17.10;99.90;;;;;;5116733;28;20048;-71
2023/10/09 13:39:28;;;;;;;10.60;3.47;;;17.20;99.90;;;;;;5081943;28;20493;-70
2023/10/09 13:41:58;;;;;;;10.75;3.65;;;17.10;99.90;;;;;;5066249;28;20393;-70
2023/10/09 13:44:26;;;;;;;12.60;4.00;;;17.20;99.90;;;;;;5098528;28;20055;-70
2023/10/09 13:46:56;;;;;;;10.50;3.30;;;17.20;99.90;;;;;;5081609;28;20065;-70
2023/10/09 13:49:22;;;;;;;9.63;3.85;;;17.20;99.90;;;;;;5065676;28;20047;-71
2023/10/09 13:51:49;;;;;;;8.30;3.28;;;17.10;99.90;;;;;;5081430;28;20051;-70
2023/10/09 13:54:21;;;;;;;9.23;3.25;;;17.20;99.90;;;;;;5098455;28;20526;-69
2023/10/09 13:56:52;;;;;;;14.02;3.95;;;17.20;99.90;;;;;;5098192;28;20086;-71
2023/10/09 13:59:25;;;;;;;10.27;3.35;;;17.10;99.90;;;;;;5082001;28;20059;-70
2023/10/09 14:01:54;;;;;;;12.02;3.35;;;17.10;99.90;;;;;;5098139;28;20446;-70
2023/10/09 14:04:20;;;;;;;14.07;3.75;;;17.10;99.90;;;;;;5097828;28;20051;-70
2023/10/09 14:06:47;;;;;;;12.00;3.30;;;17.10;99.90;;;;;;5115933;28;20044;-70
2023/10/09 14:09:27;;;;;;;10.80;2.97;;;17.00;99.90;;;;;;5098073;28;20040;-70
2023/10/09 14:12:08;;;;;;;9.93;3.03;;;17.00;99.90;;;;;;5097918;28;20397;-70
2023/10/09 14:14:37;;;;;;;11.35;2.95;;;17.00;99.90;;;;;;5098106;28;20438;-70
2023/10/09 14:17:13;;;;;;;15.07;3.67;;;17.00;99.90;;;;;;5097742;28;20114;-70
2023/10/09 14:19:41;;;;;;;11.73;2.95;;;17.10;99.90;;;;;;5097981;28;20040;-70
2023/10/09 14:22:07;;;;;;;13.13;3.08;;;17.10;99.90;;;;;;5097469;28;20083;-69
2023/10/09 14:24:34;;;;;;;11.40;2.83;;;17.10;99.90;;;;;;5080874;28;20144;-70
2023/10/09 14:27:04;;;;;;;6.50;2.25;;;17.20;99.90;;;;;;5115609;28;20188;-69
2023/10/09 14:29:31;;;;;;;12.68;2.95;;;17.20;99.90;;;;;;5080968;28;20400;-71
2023/10/09 14:32:00;;;;;;;8.40;3.15;;;17.20;99.90;;;;;;5097262;28;20043;-70
2023/10/09 14:34:32;;;;;;;5.38;2.30;;;17.30;99.90;;;;;;5080624;28;20556;-71
2023/10/09 14:37:00;;;;;;;10.02;2.72;;;17.20;99.90;;;;;;5115370;28;20051;-71
2023/10/09 14:39:27;;;;;;;10.65;2.70;;;17.20;99.90;;;;;;5080864;28;20122;-70
2023/10/09 14:41:57;;;;;;;9.43;2.92;;;17.20;99.90;;;;;;5096753;28;20159;-70
2023/10/09 14:44:24;;;;;;;9.85;2.90;;;17.20;99.90;;;;;;5081176;28;20044;-70
2023/10/09 14:46:50;;;;;;;12.05;3.13;;;17.20;99.90;;;;;;5096032;28;20043;-71
2023/10/09 14:49:21;;;;;;;17.08;3.05;;;17.20;99.90;;;;;;5097455;28;20043;-70
2023/10/09 14:51:47;;;;;;;13.23;2.88;;;17.20;99.90;;;;;;5115693;28;20047;-74
2023/10/09 14:54:17;;;;;;;10.85;2.70;;;17.10;99.90;;;;;;5096959;28;20051;-71
2023/10/09 14:56:45;;;;;;;8.60;2.35;;;17.10;99.90;;;;;;5098212;28;20047;-69
2023/10/09 14:59:11;;;;;;;12.20;2.60;;;17.10;99.90;;;;;;5080381;28;20138;-71
2023/10/09 15:01:37;;;;;;;8.23;2.50;;;17.10;99.90;;;;;;5080872;28;20058;-70
2023/10/09 15:04:04;;;;;;;10.00;2.90;;;17.10;99.90;;;;;;5096839;28;20044;-71
2023/10/09 15:06:30;;;;;;;8.50;2.60;;;17.10;99.90;;;;;;5080917;28;20051;-71
2023/10/09 15:09:07;;;;;;;8.60;2.20;;;17.10;99.90;;;;;;5063368;28;20052;-72
2023/10/09 15:11:34;;;;;;;9.05;2.60;;;17.10;99.90;;;;;;5064746;28;20126;-70
2023/10/09 15:13:59;;;;;;;9.73;2.55;;;17.10;99.90;;;;;;5096775;28;20059;-70
2023/10/09 15:16:30;;;;;;;17.15;4.55;;;17.10;99.90;;;;;;5063672;28;20096;-70
2023/10/09 15:19:02;;;;;;;10.98;3.03;;;17.10;99.90;;;;;;5080762;28;20051;-71
2023/10/09 15:21:28;;;;;;;8.90;2.95;;;17.10;99.90;;;;;;5097193;28;20047;-70
2023/10/09 15:23:55;;;;;;;10.57;2.63;;;17.10;99.90;;;;;;5098207;28;20043;-70
2023/10/09 15:26:23;;;;;;;12.63;2.63;;;17.10;99.90;;;;;;5081587;28;20055;-70
2023/10/09 15:28:50;;;;;;;7.30;2.78;;;17.10;99.90;;;;;;5080365;28;20054;-71
2023/10/09 15:31:16;;;;;;;12.40;2.75;;;17.10;99.90;;;;;;5079874;28;20131;-71
2023/10/09 15:33:43;;;;;;;9.68;2.35;;;17.10;99.90;;;;;;5096697;28;20122;-71
2023/10/09 15:36:20;;;;;;;10.88;2.72;;;17.10;99.90;;;;;;5095863;28;20044;-71
2023/10/09 15:38:49;;;;;;;8.50;2.28;;;17.10;99.90;;;;;;5079850;28;20058;-72
2023/10/09 15:41:16;;;;;;;8.18;2.25;;;17.00;99.90;;;;;;5096086;28;20127;-70
2023/10/09 15:43:42;;;;;;;7.63;2.10;;;17.00;99.90;;;;;;5079278;28;20074;-71
2023/10/09 15:46:14;;;;;;;9.50;1.95;;;17.00;99.90;;;;;;5079422;28;20403;-70
2023/10/09 15:48:41;;;;;;;4.85;2.33;;;17.00;99.90;;;;;;5114521;28;20362;-72
2023/10/09 15:51:14;;;;;;;7.78;2.30;;;16.90;99.90;;;;;;5096011;28;20393;-72
2023/10/09 15:53:46;;;;;;;5.60;1.90;;;16.90;99.90;;;;;;5096660;28;20051;-73
2023/10/09 15:56:13;;;;;;;6.57;2.20;;;16.90;99.90;;;;;;5095958;28;20043;-70